Time;durP1;ratioP1;P1;durP2;ratioP2;P2;SDS_P1;SDS_P2;PMS_P1;PMS_P2;Temp;Humidity;BMP_temperature;BMP_pressure;BME280_temperature;BME280_humidity;BME280_pressure;Samples;Min_cycle;Max_cycle;Signal;HPM_P1;HPM_P2
2021/07/31 00:01:28;;;;;;;1.48;1.25;;;22.30;99.90;;;;;;5059075;28;20187;-81
2021/07/31 00:03:55;;;;;;;1.40;1.10;;;22.10;99.90;;;;;;5058592;28;20564;-81
2021/07/31 00:06:21;;;;;;;3.85;1.30;;;22.20;99.90;;;;;;5058342;28;20667;-80
2021/07/31 00:08:50;;;;;;;2.65;1.10;;;22.20;99.90;;;;;;5058346;28;20230;-80
2021/07/31 00:11:16;;;;;;;4.22;1.23;;;22.10;99.90;;;;;;5038123;28;20204;-81
2021/07/31 00:13:43;;;;;;;1.80;1.25;;;22.10;99.90;;;;;;5053548;28;20198;-82
2021/07/31 00:16:10;;;;;;;2.88;1.45;;;22.10;99.90;;;;;;5057828;28;20207;-80
2021/07/31 00:18:36;;;;;;;1.50;1.20;;;22.00;99.90;;;;;;5057495;28;20191;-80
2021/07/31 00:21:03;;;;;;;1.95;1.10;;;22.10;99.90;;;;;;5057859;28;20196;-82
2021/07/31 00:23:30;;;;;;;3.15;1.20;;;22.00;99.90;;;;;;5057462;28;20680;-80
2021/07/31 00:25:58;;;;;;;3.95;1.38;;;22.00;99.90;;;;;;5057698;28;20210;-81
2021/07/31 00:28:24;;;;;;;1.30;1.20;;;22.10;99.90;;;;;;5073382;28;20222;-80
2021/07/31 00:30:52;;;;;;;1.70;1.17;;;21.90;99.90;;;;;;5077186;28;20203;-82
2021/07/31 00:33:19;;;;;;;1.40;1.20;;;21.90;99.90;;;;;;5057126;28;20199;-81
2021/07/31 00:35:45;;;;;;;1.60;1.20;;;21.80;99.90;;;;;;5057257;28;20560;-81
2021/07/31 00:38:12;;;;;;;1.48;1.10;;;21.80;99.90;;;;;;5067038;28;20195;-81
2021/07/31 00:40:39;;;;;;;1.50;1.08;;;21.80;99.90;;;;;;5057673;28;20199;-81
2021/07/31 00:43:07;;;;;;;1.20;0.90;;;21.80;99.90;;;;;;5057036;28;20282;-81
2021/07/31 00:45:35;;;;;;;1.20;1.10;;;21.80;99.90;;;;;;5068412;28;20662;-80
2021/07/31 00:48:02;;;;;;;1.15;1.00;;;21.70;99.90;;;;;;5065152;28;20203;-81
2021/07/31 00:50:31;;;;;;;2.05;1.20;;;21.70;99.90;;;;;;5057420;28;20211;-80
2021/07/31 00:52:58;;;;;;;1.58;1.20;;;21.70;99.90;;;;;;5057284;28;20706;-80
2021/07/31 00:55:27;;;;;;;2.05;1.10;;;21.60;99.90;;;;;;5057333;28;20191;-81
2021/07/31 00:57:54;;;;;;;2.15;1.20;;;21.60;99.90;;;;;;5068662;28;20558;-81
2021/07/31 01:00:22;;;;;;;2.85;1.13;;;21.60;99.90;;;;;;5074689;28;20191;-81
2021/07/31 01:02:49;;;;;;;2.78;1.52;;;21.60;99.90;;;;;;5078210;28;20210;-81
2021/07/31 01:05:15;;;;;;;2.63;1.33;;;21.50;99.90;;;;;;5077529;28;20206;-80
2021/07/31 01:07:43;;;;;;;1.75;1.00;;;21.60;99.90;;;;;;5060401;28;20195;-81
2021/07/31 01:10:10;;;;;;;2.42;1.58;;;21.60;99.90;;;;;;5057046;28;20218;-80
2021/07/31 01:12:40;;;;;;;2.50;1.08;;;21.50;99.90;;;;;;5057921;28;20628;-80
2021/07/31 01:15:08;;;;;;;2.10;1.00;;;21.50;99.90;;;;;;5057852;28;20883;-81
2021/07/31 01:17:35;;;;;;;2.42;1.20;;;21.50;99.90;;;;;;5059957;28;20202;-80
2021/07/31 01:20:03;;;;;;;2.45;1.52;;;21.40;99.90;;;;;;5057928;28;20207;-81
2021/07/31 01:22:31;;;;;;;1.58;1.48;;;21.40;99.90;;;;;;5057359;28;20198;-81
2021/07/31 01:24:58;;;;;;;1.65;1.30;;;21.30;99.90;;;;;;5057473;28;20294;-81
2021/07/31 01:27:24;;;;;;;2.45;1.75;;;21.30;99.90;;;;;;5056233;28;20223;-81
2021/07/31 01:29:51;;;;;;;1.98;1.40;;;21.30;99.90;;;;;;5056436;28;20223;-80
2021/07/31 01:32:18;;;;;;;3.10;1.23;;;21.30;99.90;;;;;;5055826;28;20214;-81
2021/07/31 01:34:44;;;;;;;2.20;1.13;;;21.30;99.90;;;;;;5055785;28;20191;-81
2021/07/31 01:37:11;;;;;;;4.55;1.25;;;21.30;99.90;;;;;;5066391;28;20203;-81
2021/07/31 01:39:39;;;;;;;1.90;1.10;;;21.20;99.90;;;;;;5057444;28;20214;-81
2021/07/31 01:42:06;;;;;;;2.33;1.10;;;21.20;99.90;;;;;;5036437;28;20215;-81
2021/07/31 01:44:33;;;;;;;2.33;0.90;;;21.20;99.90;;;;;;5051223;28;20198;-80
2021/07/31 01:47:00;;;;;;;1.50;1.10;;;21.10;99.90;;;;;;5057254;28;20203;-81
2021/07/31 01:49:26;;;;;;;1.50;1.27;;;21.20;99.90;;;;;;5062567;28;20257;-80
2021/07/31 01:51:53;;;;;;;1.20;1.08;;;21.10;99.90;;;;;;5062417;28;20199;-80
2021/07/31 01:54:20;;;;;;;2.45;1.15;;;21.10;99.90;;;;;;5057237;28;20195;-80
2021/07/31 01:56:48;;;;;;;1.52;1.02;;;21.10;99.90;;;;;;5056730;28;20199;-81
2021/07/31 01:59:15;;;;;;;3.92;1.30;;;21.00;99.90;;;;;;5065307;28;20216;-80
2021/07/31 02:01:42;;;;;;;2.33;1.20;;;21.10;99.90;;;;;;5062739;28;20222;-80
2021/07/31 02:04:08;;;;;;;1.40;0.98;;;21.10;99.90;;;;;;5056752;28;20278;-80
2021/07/31 02:06:35;;;;;;;1.55;1.20;;;21.10;99.90;;;;;;5059693;28;20202;-80
2021/07/31 02:09:02;;;;;;;1.30;1.00;;;21.10;99.90;;;;;;5061342;28;20214;-80
2021/07/31 02:11:29;;;;;;;1.80;0.95;;;21.10;99.90;;;;;;5061331;28;20206;-80
2021/07/31 02:13:57;;;;;;;2.15;1.25;;;21.00;99.90;;;;;;5064763;28;20194;-79
2021/07/31 02:16:25;;;;;;;1.60;1.15;;;21.00;99.90;;;;;;5077080;28;20200;-79
2021/07/31 02:18:52;;;;;;;3.17;1.20;;;21.00;99.90;;;;;;5052624;28;20194;-81
2021/07/31 02:21:19;;;;;;;2.20;1.40;;;21.00;99.90;;;;;;5066302;28;20210;-81
2021/07/31 02:23:46;;;;;;;1.75;1.10;;;21.00;99.90;;;;;;5061530;28;20204;-81
2021/07/31 02:26:13;;;;;;;1.63;1.10;;;21.00;99.90;;;;;;5061377;28;20200;-80
2021/07/31 02:28:39;;;;;;;2.33;1.08;;;21.00;99.90;;;;;;5058134;28;20731;-80
2021/07/31 02:31:11;;;;;;;2.17;1.30;;;20.90;99.90;;;;;;5059622;28;20580;-80
2021/07/31 02:33:38;;;;;;;4.75;1.30;;;21.00;99.90;;;;;;5057215;28;20648;-80
2021/07/31 02:36:06;;;;;;;1.60;1.13;;;21.10;99.90;;;;;;5060141;28;20656;-80
2021/07/31 02:38:32;;;;;;;2.08;1.25;;;20.90;99.90;;;;;;5058467;28;20639;-80
2021/07/31 02:41:00;;;;;;;3.17;1.25;;;20.90;99.90;;;;;;5060485;28;20199;-80
2021/07/31 02:43:26;;;;;;;1.40;1.00;;;20.90;99.90;;;;;;5067697;28;20187;-80
2021/07/31 02:45:53;;;;;;;2.33;1.27;;;20.90;99.90;;;;;;5065157;28;20206;-79
2021/07/31 02:48:21;;;;;;;1.17;1.00;;;20.90;99.90;;;;;;5067554;28;20505;-79
2021/07/31 02:50:48;;;;;;;2.70;1.10;;;20.90;99.90;;;;;;5039422;28;20219;-80
2021/07/31 02:53:14;;;;;;;2.97;1.20;;;20.80;99.90;;;;;;5055715;28;20201;-78
2021/07/31 02:55:41;;;;;;;1.60;1.40;;;20.90;99.90;;;;;;5076189;28;20195;-78
2021/07/31 02:58:08;;;;;;;1.27;1.00;;;20.90;99.90;;;;;;5069438;28;20196;-79
2021/07/31 03:00:34;;;;;;;1.30;1.15;;;20.80;99.90;;;;;;5058753;28;20210;-79
2021/07/31 03:03:01;;;;;;;2.20;1.15;;;20.80;99.90;;;;;;5057948;28;20385;-79
2021/07/31 03:05:29;;;;;;;3.78;1.10;;;20.80;99.90;;;;;;5057741;28;20197;-79
2021/07/31 03:07:56;;;;;;;1.20;1.00;;;20.80;99.90;;;;;;5072384;28;20194;-79
2021/07/31 03:10:22;;;;;;;1.30;0.93;;;20.80;99.90;;;;;;5060463;28;20671;-79
2021/07/31 03:12:50;;;;;;;2.22;1.30;;;20.80;99.90;;;;;;5058440;28;20200;-79
2021/07/31 03:15:17;;;;;;;3.20;1.40;;;20.80;99.90;;;;;;5057294;28;20202;-80
2021/07/31 03:17:44;;;;;;;1.80;1.20;;;20.80;99.90;;;;;;5069603;28;20199;-79
2021/07/31 03:20:12;;;;;;;2.95;1.40;;;20.70;99.90;;;;;;5076651;28;20202;-78
2021/07/31 03:22:40;;;;;;;1.27;1.15;;;20.70;99.90;;;;;;5076527;28;20207;-79
2021/07/31 03:25:08;;;;;;;2.55;1.40;;;20.70;99.90;;;;;;5076711;28;20555;-79
2021/07/31 03:27:34;;;;;;;2.75;1.00;;;20.70;99.90;;;;;;5073103;28;20233;-79
2021/07/31 03:30:02;;;;;;;1.55;1.20;;;20.70;99.90;;;;;;5076822;28;20226;-79
2021/07/31 03:32:28;;;;;;;2.47;1.40;;;20.70;99.90;;;;;;5064462;28;20199;-79
2021/07/31 03:34:55;;;;;;;2.30;1.20;;;20.70;99.90;;;;;;5056556;28;20204;-79
2021/07/31 03:37:22;;;;;;;1.98;1.10;;;20.70;99.90;;;;;;5063928;28;20268;-77
2021/07/31 03:39:50;;;;;;;1.98;1.00;;;20.70;99.90;;;;;;5061954;28;20582;-78
2021/07/31 03:42:16;;;;;;;1.63;1.10;;;20.70;99.90;;;;;;5057599;28;20214;-79
2021/07/31 03:44:43;;;;;;;1.65;1.50;;;20.70;99.90;;;;;;5057338;28;20195;-79
2021/07/31 03:47:10;;;;;;;2.17;1.40;;;20.70;99.90;;;;;;5057267;28;20196;-79
2021/07/31 03:49:36;;;;;;;1.65;1.10;;;20.60;99.90;;;;;;5064838;28;20215;-79
2021/07/31 03:52:04;;;;;;;2.08;1.25;;;20.70;99.90;;;;;;5076682;28;20669;-79
2021/07/31 03:54:32;;;;;;;2.47;1.65;;;20.60;99.90;;;;;;5077286;28;20205;-79
2021/07/31 03:57:00;;;;;;;3.35;1.58;;;20.60;99.90;;;;;;5074594;28;20199;-78
2021/07/31 03:59:27;;;;;;;1.25;1.10;;;20.60;99.90;;;;;;5070341;28;20195;-79
2021/07/31 04:01:55;;;;;;;1.20;1.00;;;20.60;99.90;;;;;;5056794;28;20203;-79
2021/07/31 04:04:21;;;;;;;1.27;1.17;;;20.60;99.90;;;;;;5066329;28;20281;-78
2021/07/31 04:06:48;;;;;;;3.72;1.20;;;20.50;99.90;;;;;;5066326;28;20572;-79
2021/07/31 04:09:15;;;;;;;6.97;3.00;;;20.50;99.90;;;;;;5056832;28;20195;-79
2021/07/31 04:11:41;;;;;;;2.45;1.42;;;20.60;99.90;;;;;;5056122;28;20203;-79
2021/07/31 04:14:09;;;;;;;2.00;1.25;;;20.60;99.90;;;;;;5056540;28;20203;-79
2021/07/31 04:16:36;;;;;;;1.40;1.20;;;20.60;99.90;;;;;;5056543;28;20191;-79
2021/07/31 04:19:03;;;;;;;2.10;1.52;;;20.50;99.90;;;;;;5056793;28;20199;-79
2021/07/31 04:21:29;;;;;;;2.60;1.70;;;20.60;99.90;;;;;;5056214;28;20206;-79
2021/07/31 04:23:56;;;;;;;2.33;1.38;;;20.60;99.90;;;;;;5056314;28;20199;-79
2021/07/31 04:26:22;;;;;;;1.95;1.17;;;20.50;99.90;;;;;;5056414;28;20199;-78
2021/07/31 04:28:49;;;;;;;6.85;1.60;;;20.50;99.90;;;;;;5066980;28;20226;-77
2021/07/31 04:31:18;;;;;;;1.60;1.40;;;20.50;99.90;;;;;;5056332;28;20211;-79
2021/07/31 04:33:45;;;;;;;1.30;1.08;;;20.40;99.90;;;;;;5053908;28;20643;-79
2021/07/31 04:36:12;;;;;;;3.20;1.40;;;20.50;99.90;;;;;;5057647;28;20199;-79
2021/07/31 04:38:39;;;;;;;1.58;1.45;;;20.50;99.90;;;;;;5070606;28;20203;-79
2021/07/31 04:41:07;;;;;;;3.65;1.23;;;20.50;99.90;;;;;;5056265;28;20206;-79
2021/07/31 04:43:34;;;;;;;2.72;1.40;;;20.50;99.90;;;;;;5055639;28;20203;-79
2021/07/31 04:46:02;;;;;;;2.05;1.70;;;20.50;99.90;;;;;;5056070;28;20192;-79
2021/07/31 04:48:30;;;;;;;1.63;1.20;;;20.50;99.90;;;;;;5075112;28;20693;-78
2021/07/31 04:51:01;;;;;;;2.58;1.50;;;20.50;99.90;;;;;;5076260;28;20223;-79
2021/07/31 04:53:29;;;;;;;5.05;1.50;;;20.50;99.90;;;;;;5075994;28;20755;-79
2021/07/31 04:55:56;;;;;;;1.95;1.40;;;20.50;99.90;;;;;;5071659;28;20199;-79
2021/07/31 04:58:23;;;;;;;2.15;1.30;;;20.50;99.90;;;;;;5055521;28;20206;-79
2021/07/31 05:00:50;;;;;;;2.42;1.35;;;20.50;99.90;;;;;;5056045;28;20199;-79
2021/07/31 05:03:17;;;;;;;4.68;1.65;;;20.50;99.90;;;;;;5062972;28;20198;-79
2021/07/31 05:05:46;;;;;;;2.17;1.67;;;20.40;99.90;;;;;;5056139;28;20198;-78
2021/07/31 05:08:13;;;;;;;3.55;1.50;;;20.50;99.90;;;;;;5072687;28;20659;-79
2021/07/31 05:10:40;;;;;;;3.70;1.42;;;20.50;99.90;;;;;;5069528;28;20617;-78
2021/07/31 05:13:07;;;;;;;2.00;1.30;;;20.50;99.90;;;;;;5055124;28;20223;-78
2021/07/31 05:15:35;;;;;;;2.80;1.70;;;20.40;99.90;;;;;;5054630;28;20241;-79
2021/07/31 05:18:02;;;;;;;1.40;1.20;;;20.40;99.90;;;;;;5057931;28;20203;-79
2021/07/31 05:20:29;;;;;;;3.97;1.70;;;20.40;99.90;;;;;;5054561;28;20192;-79
2021/07/31 05:22:57;;;;;;;3.35;1.23;;;20.40;99.90;;;;;;5055514;28;20203;-79
2021/07/31 05:25:23;;;;;;;2.58;1.27;;;20.40;99.90;;;;;;5054083;28;20207;-79
2021/07/31 05:27:50;;;;;;;4.53;1.70;;;20.50;99.90;;;;;;5071088;28;20280;-78
2021/07/31 05:30:17;;;;;;;1.88;1.42;;;20.40;99.90;;;;;;5074781;28;20566;-79
2021/07/31 05:32:44;;;;;;;1.85;1.75;;;20.40;99.90;;;;;;5058931;28;20199;-79
2021/07/31 05:35:11;;;;;;;3.25;1.30;;;20.40;99.90;;;;;;5055359;28;20656;-79
2021/07/31 05:37:38;;;;;;;3.05;1.17;;;20.40;99.90;;;;;;5069103;28;20674;-80
2021/07/31 05:40:08;;;;;;;2.25;1.17;;;20.30;99.90;;;;;;5059178;28;20199;-79
2021/07/31 05:42:34;;;;;;;2.38;1.40;;;20.30;99.90;;;;;;5058914;28;20211;-79
2021/07/31 05:45:03;;;;;;;2.88;1.48;;;20.30;99.90;;;;;;5060044;28;20556;-79
2021/07/31 05:47:30;;;;;;;5.35;1.50;;;20.30;99.90;;;;;;5060768;28;20199;-79
2021/07/31 05:49:57;;;;;;;2.50;1.50;;;20.40;99.90;;;;;;5059599;28;20551;-80
2021/07/31 05:52:26;;;;;;;4.30;1.77;;;20.40;99.90;;;;;;5059532;28;20567;-78
2021/07/31 05:54:53;;;;;;;1.60;1.33;;;20.50;99.90;;;;;;5059372;28;20199;-79
2021/07/31 05:57:21;;;;;;;2.60;1.75;;;20.60;99.90;;;;;;5060199;28;20206;-80
2021/07/31 05:59:48;;;;;;;5.30;1.40;;;20.60;99.90;;;;;;5059121;28;20210;-79
2021/07/31 06:02:16;;;;;;;2.05;1.20;;;20.60;99.90;;;;;;5058667;28;20191;-80
2021/07/31 06:04:42;;;;;;;1.70;1.30;;;20.50;99.90;;;;;;5072141;28;20210;-79
2021/07/31 06:07:10;;;;;;;1.77;1.42;;;20.50;99.90;;;;;;5069111;28;20200;-79
2021/07/31 06:09:38;;;;;;;2.33;1.20;;;20.50;99.90;;;;;;5058174;28;20195;-78
2021/07/31 06:12:06;;;;;;;1.50;1.30;;;20.50;99.90;;;;;;5057445;28;20222;-80
2021/07/31 06:14:37;;;;;;;2.75;1.55;;;20.40;99.90;;;;;;5060023;28;20191;-80
2021/07/31 06:17:04;;;;;;;1.77;1.30;;;20.40;99.90;;;;;;5076950;28;20226;-79
2021/07/31 06:19:31;;;;;;;3.42;1.77;;;20.40;99.90;;;;;;5076254;28;20199;-78
2021/07/31 06:21:57;;;;;;;2.38;1.50;;;20.40;99.90;;;;;;5065068;28;20202;-79
2021/07/31 06:24:24;;;;;;;2.53;1.50;;;20.40;99.90;;;;;;5058012;28;20199;-80
2021/07/31 06:26:51;;;;;;;2.50;1.25;;;20.40;99.90;;;;;;5058680;28;20253;-79
2021/07/31 06:29:18;;;;;;;2.33;1.58;;;20.40;99.90;;;;;;5057609;28;20199;-79
2021/07/31 06:31:46;;;;;;;1.58;1.00;;;20.40;99.90;;;;;;5070339;28;20566;-79
2021/07/31 06:34:13;;;;;;;4.43;1.40;;;20.40;99.90;;;;;;5065354;28;20191;-78
2021/07/31 06:36:41;;;;;;;3.67;1.80;;;20.30;99.90;;;;;;5069058;28;20195;-79
2021/07/31 06:39:08;;;;;;;1.30;1.20;;;20.30;99.90;;;;;;5069172;28;20211;-78
2021/07/31 06:41:35;;;;;;;1.88;1.23;;;20.30;99.90;;;;;;5057620;28;20188;-79
2021/07/31 06:44:01;;;;;;;2.28;1.40;;;20.40;99.90;;;;;;5057750;28;20204;-79
2021/07/31 06:46:29;;;;;;;2.58;1.45;;;20.30;99.90;;;;;;5056424;28;20191;-79
2021/07/31 06:48:59;;;;;;;2.58;1.20;;;20.30;99.90;;;;;;5066171;28;20675;-78
2021/07/31 06:51:26;;;;;;;3.10;1.42;;;20.30;99.90;;;;;;5078111;28;20211;-79
2021/07/31 06:53:53;;;;;;;1.75;1.65;;;20.30;99.90;;;;;;5077770;28;20241;-78
2021/07/31 06:56:20;;;;;;;4.03;1.50;;;20.30;99.90;;;;;;5059640;28;20198;-79
2021/07/31 06:58:46;;;;;;;3.53;1.55;;;20.30;99.90;;;;;;5070794;28;20253;-79
2021/07/31 07:01:15;;;;;;;1.58;1.35;;;20.30;99.90;;;;;;5068666;28;20186;-79
2021/07/31 07:03:43;;;;;;;1.50;1.40;;;20.40;99.90;;;;;;5077603;28;20210;-79
2021/07/31 07:06:11;;;;;;;2.50;1.30;;;20.30;99.90;;;;;;5075447;28;20195;-79
2021/07/31 07:08:38;;;;;;;4.28;1.65;;;20.30;99.90;;;;;;5072460;28;20191;-79
2021/07/31 07:11:05;;;;;;;2.78;1.70;;;20.30;99.90;;;;;;5056367;28;20215;-79
2021/07/31 07:13:32;;;;;;;1.63;1.30;;;20.30;99.90;;;;;;5056693;28;20207;-79
2021/07/31 07:15:59;;;;;;;1.55;1.40;;;20.30;99.90;;;;;;5069907;28;20194;-79
2021/07/31 07:18:25;;;;;;;1.92;1.40;;;20.30;99.90;;;;;;5073505;28;20187;-79
2021/07/31 07:20:52;;;;;;;2.67;1.77;;;20.30;99.90;;;;;;5056679;28;20210;-79
2021/07/31 07:23:20;;;;;;;2.05;1.40;;;20.30;99.90;;;;;;5056999;28;20203;-79
2021/07/31 07:25:47;;;;;;;1.73;1.25;;;20.30;99.90;;;;;;5060849;28;20191;-78
2021/07/31 07:28:13;;;;;;;1.60;1.20;;;20.40;99.90;;;;;;5063631;28;20237;-77
2021/07/31 07:30:40;;;;;;;1.88;1.35;;;20.50;99.90;;;;;;5054589;28;20664;-78
2021/07/31 07:33:07;;;;;;;2.60;1.85;;;20.50;99.90;;;;;;5050910;28;20203;-77
2021/07/31 07:35:33;;;;;;;1.70;1.48;;;20.70;99.90;;;;;;5048601;28;20199;-78
2021/07/31 07:38:00;;;;;;;1.63;1.50;;;20.90;99.90;;;;;;5054081;28;20203;-78
2021/07/31 07:40:28;;;;;;;2.47;1.75;;;21.00;99.90;;;;;;5056472;28;20192;-79
2021/07/31 07:42:54;;;;;;;1.90;1.40;;;21.10;99.90;;;;;;5056631;28;20203;-79
2021/07/31 07:45:21;;;;;;;3.30;2.00;;;21.10;99.90;;;;;;5056238;28;20206;-78
2021/07/31 07:47:48;;;;;;;1.52;1.35;;;21.20;99.90;;;;;;5055921;28;20199;-79
2021/07/31 07:50:15;;;;;;;2.63;1.67;;;21.20;99.90;;;;;;5056092;28;20210;-78
2021/07/31 07:52:41;;;;;;;1.75;1.63;;;21.10;99.90;;;;;;5054327;28;20219;-78
2021/07/31 07:55:08;;;;;;;1.65;1.55;;;21.10;99.90;;;;;;5048067;28;20204;-78
2021/07/31 07:57:39;;;;;;;2.30;1.80;;;21.10;99.90;;;;;;5035747;28;20200;-78
2021/07/31 08:00:07;;;;;;;2.85;1.70;;;21.10;99.90;;;;;;5049930;28;20583;-79
2021/07/31 08:02:34;;;;;;;3.15;1.65;;;21.00;99.90;;;;;;5055094;28;20196;-78
2021/07/31 08:05:01;;;;;;;5.10;2.03;;;21.00;99.90;;;;;;5055516;28;20203;-77
2021/07/31 08:07:27;;;;;;;2.45;1.77;;;20.90;99.90;;;;;;5047737;28;20564;-78
2021/07/31 08:09:55;;;;;;;2.05;1.52;;;20.90;99.90;;;;;;5051935;28;20210;-78
2021/07/31 08:12:21;;;;;;;2.47;1.92;;;20.90;99.90;;;;;;5055936;28;20214;-78
2021/07/31 08:14:50;;;;;;;2.15;1.60;;;20.90;99.90;;;;;;5075206;28;20207;-79
2021/07/31 08:17:17;;;;;;;2.15;1.45;;;20.90;99.90;;;;;;5054317;28;20200;-78
2021/07/31 08:19:44;;;;;;;2.78;1.30;;;21.00;99.90;;;;;;5054621;28;20191;-78
2021/07/31 08:22:10;;;;;;;1.50;1.30;;;21.00;99.90;;;;;;5053459;28;20205;-78
2021/07/31 08:24:37;;;;;;;2.47;1.75;;;21.00;99.90;;;;;;5046361;28;20195;-78
2021/07/31 08:27:04;;;;;;;2.65;1.55;;;21.10;99.90;;;;;;5061316;28;20199;-79
2021/07/31 08:29:31;;;;;;;1.30;1.15;;;21.10;99.90;;;;;;5059277;28;20196;-77
2021/07/31 08:31:58;;;;;;;3.47;1.50;;;21.10;99.90;;;;;;5049134;28;20290;-79
2021/07/31 08:34:25;;;;;;;4.60;1.63;;;21.10;99.90;;;;;;5058506;28;20195;-78
2021/07/31 08:36:52;;;;;;;1.83;1.63;;;21.10;99.90;;;;;;5050797;28;20541;-78
2021/07/31 08:39:18;;;;;;;2.85;1.40;;;21.10;99.90;;;;;;5049046;28;20665;-79
2021/07/31 08:41:47;;;;;;;3.20;1.60;;;21.10;99.90;;;;;;5054997;28;20564;-78
2021/07/31 08:44:13;;;;;;;1.65;1.42;;;21.10;99.90;;;;;;5065244;28;20226;-79
2021/07/31 08:46:45;;;;;;;3.28;2.60;;;21.10;99.90;;;;;;5059824;28;20198;-78
2021/07/31 08:49:18;;;;;;;2.47;1.50;;;21.10;99.90;;;;;;5073574;28;21021;-80
2021/07/31 08:51:46;;;;;;;1.70;1.38;;;21.10;99.90;;;;;;5061980;28;20245;-79
2021/07/31 08:54:13;;;;;;;2.20;1.70;;;21.10;99.90;;;;;;5042309;28;20203;-75
2021/07/31 08:56:42;;;;;;;1.55;1.20;;;21.10;99.90;;;;;;5064147;28;20199;-73
2021/07/31 08:59:09;;;;;;;1.45;1.27;;;21.00;99.90;;;;;;5068025;28;20192;-73
2021/07/31 09:01:35;;;;;;;1.80;1.40;;;21.00;99.90;;;;;;5068642;28;20194;-73
2021/07/31 09:04:11;;;;;;;1.70;1.25;;;21.00;99.90;;;;;;5065740;28;20226;-73
2021/07/31 09:06:39;;;;;;;1.40;1.30;;;20.90;99.90;;;;;;5066147;28;20175;-73
2021/07/31 09:09:06;;;;;;;1.65;1.30;;;21.00;99.90;;;;;;5085628;28;20194;-73
2021/07/31 09:11:33;;;;;;;5.22;1.55;;;21.10;99.90;;;;;;5064924;28;20216;-73
2021/07/31 09:14:10;;;;;;;2.85;1.50;;;21.20;99.90;;;;;;5064530;28;20667;-74
2021/07/31 09:16:37;;;;;;;1.60;1.25;;;21.30;99.90;;;;;;5063942;28;20225;-73
2021/07/31 09:19:05;;;;;;;2.03;1.20;;;21.30;99.90;;;;;;5066076;28;20196;-73
2021/07/31 09:21:32;;;;;;;1.88;1.25;;;21.20;99.90;;;;;;5071626;28;20207;-73
2021/07/31 09:24:00;;;;;;;1.83;1.45;;;21.20;99.90;;;;;;5074316;28;20191;-73
2021/07/31 09:26:35;;;;;;;1.90;1.40;;;21.20;99.90;;;;;;5066416;28;20198;-73
2021/07/31 09:29:04;;;;;;;2.22;1.77;;;21.30;99.90;;;;;;5055624;28;20227;-73
2021/07/31 09:31:31;;;;;;;3.42;1.40;;;21.20;99.90;;;;;;5067021;28;20215;-73
2021/07/31 09:34:02;;;;;;;2.47;1.40;;;21.30;99.90;;;;;;5065059;28;20202;-73
2021/07/31 09:36:36;;;;;;;2.88;1.60;;;21.20;99.90;;;;;;5065972;28;20187;-73
2021/07/31 09:39:05;;;;;;;1.63;1.17;;;21.20;99.90;;;;;;5064876;28;20191;-73
2021/07/31 09:41:37;;;;;;;1.65;1.20;;;21.00;99.90;;;;;;5059461;28;20195;-72
2021/07/31 09:44:12;;;;;;;2.40;2.20;;;21.10;99.90;;;;;;5066121;28;20192;-75
2021/07/31 09:46:45;;;;;;;3.45;1.40;;;21.10;99.90;;;;;;5063807;28;20187;-74
2021/07/31 09:49:13;;;;;;;2.75;1.67;;;21.10;99.90;;;;;;5073800;28;20218;-74
2021/07/31 09:51:42;;;;;;;1.85;1.58;;;21.10;99.90;;;;;;5085851;28;20230;-74
2021/07/31 09:54:11;;;;;;;3.08;1.48;;;21.20;99.90;;;;;;5070726;28;20210;-74
2021/07/31 09:56:40;;;;;;;1.60;1.40;;;21.20;99.90;;;;;;5071720;28;20189;-74
2021/07/31 09:59:08;;;;;;;1.65;1.55;;;22.10;99.90;;;;;;5070798;28;20253;-74
2021/07/31 10:01:36;;;;;;;3.17;1.70;;;21.60;99.90;;;;;;5080222;28;20194;-74
2021/07/31 10:04:05;;;;;;;1.40;1.30;;;21.50;99.90;;;;;;5076017;28;20219;-74
2021/07/31 10:06:32;;;;;;;2.63;1.45;;;21.20;99.90;;;;;;5076365;28;20199;-74
2021/07/31 10:09:00;;;;;;;4.10;1.85;;;21.20;99.90;;;;;;5078135;28;20225;-74
2021/07/31 10:11:29;;;;;;;2.00;1.80;;;21.30;99.90;;;;;;5070180;28;20192;-74
2021/07/31 10:13:56;;;;;;;1.63;1.33;;;21.30;99.90;;;;;;5088234;28;20187;-73
2021/07/31 10:16:23;;;;;;;2.05;1.30;;;21.20;99.90;;;;;;5076112;28;20274;-74
2021/07/31 10:18:57;;;;;;;2.58;1.48;;;21.50;99.90;;;;;;5068093;28;20199;-73
2021/07/31 10:21:26;;;;;;;2.70;1.52;;;21.30;99.90;;;;;;5071889;28;20279;-74
2021/07/31 10:24:05;;;;;;;1.55;1.10;;;21.30;99.90;;;;;;5078166;28;20203;-74
2021/07/31 10:26:34;;;;;;;3.10;1.70;;;21.30;99.90;;;;;;5072309;28;20197;-74
2021/07/31 10:29:38;;;;;;;2.22;1.58;;;21.30;99.90;;;;;;5052621;28;20240;-74
2021/07/31 10:32:40;;;;;;;2.25;1.48;;;21.30;99.90;;;;;;5055457;28;20307;-74
2021/07/31 10:35:08;;;;;;;4.25;1.80;;;21.30;99.90;;;;;;5080610;28;20209;-74
2021/07/31 10:37:46;;;;;;;2.30;1.83;;;21.30;99.90;;;;;;5072424;28;20223;-72
2021/07/31 10:40:57;;;;;;;3.28;1.40;;;21.30;99.90;;;;;;5059606;28;20220;-72
2021/07/31 10:43:27;;;;;;;4.70;1.65;;;21.30;99.90;;;;;;5053830;28;20676;-72
2021/07/31 10:46:19;;;;;;;3.45;1.50;;;21.40;99.90;;;;;;5058279;28;20235;-72
2021/07/31 10:48:46;;;;;;;2.47;1.40;;;21.50;99.90;;;;;;5060793;28;20195;-74
2021/07/31 10:51:45;;;;;;;2.75;1.65;;;21.50;99.90;;;;;;5065252;28;20230;-72
2021/07/31 10:54:12;;;;;;;1.95;1.70;;;21.70;99.90;;;;;;5053516;28;20223;-72
2021/07/31 10:56:55;;;;;;;2.10;1.52;;;21.80;99.90;;;;;;5070507;28;20188;-72
2021/07/31 10:59:24;;;;;;;3.28;1.30;;;21.90;99.90;;;;;;5057207;28;20200;-72
2021/07/31 11:02:10;;;;;;;3.10;1.65;;;22.00;99.90;;;;;;5063397;28;20214;-72
2021/07/31 11:04:56;;;;;;;2.00;1.80;;;21.90;99.90;;;;;;5065835;28;20203;-72
2021/07/31 11:07:25;;;;;;;2.00;1.38;;;21.80;99.90;;;;;;5061269;28;20206;-72
2021/07/31 11:10:30;;;;;;;3.58;1.58;;;21.90;99.90;;;;;;5064871;28;20207;-72
2021/07/31 11:12:57;;;;;;;2.75;2.00;;;21.80;99.90;;;;;;5061027;28;20227;-72
2021/07/31 11:15:25;;;;;;;3.20;1.70;;;21.80;99.90;;;;;;5077868;28;20207;-72
2021/07/31 11:17:57;;;;;;;2.83;1.80;;;21.90;99.90;;;;;;5080759;28;20204;-73
2021/07/31 11:20:30;;;;;;;3.00;1.60;;;21.70;99.90;;;;;;5062945;28;20219;-72
2021/07/31 11:22:58;;;;;;;2.17;1.45;;;21.80;99.90;;;;;;5077176;28;20195;-72
2021/07/31 11:25:24;;;;;;;2.28;1.75;;;21.80;99.90;;;;;;5066484;28;20215;-72
2021/07/31 11:27:56;;;;;;;3.35;1.90;;;21.80;99.90;;;;;;5059411;28;20672;-72
2021/07/31 11:30:35;;;;;;;1.73;1.63;;;21.80;99.90;;;;;;5049498;28;20681;-72
2021/07/31 11:33:20;;;;;;;5.13;1.80;;;21.80;99.90;;;;;;5051259;28;20215;-75
2021/07/31 11:35:47;;;;;;;3.05;1.63;;;21.30;99.90;;;;;;5050117;28;20196;-74
2021/07/31 11:38:34;;;;;;;1.80;1.70;;;21.40;99.90;;;;;;5051756;28;20200;-74
2021/07/31 11:41:03;;;;;;;4.80;2.25;;;21.80;99.90;;;;;;5059632;28;20669;-73
2021/07/31 11:43:46;;;;;;;3.47;1.60;;;21.60;99.90;;;;;;5049581;28;20192;-73
2021/07/31 11:46:27;;;;;;;2.78;1.80;;;21.70;99.90;;;;;;5046073;28;20196;-74
2021/07/31 11:48:54;;;;;;;2.72;1.70;;;21.70;99.90;;;;;;5048472;28;20195;-74
2021/07/31 11:51:21;;;;;;;2.75;1.52;;;21.80;99.90;;;;;;5048068;28;20207;-73
2021/07/31 11:53:49;;;;;;;3.35;2.55;;;21.90;99.90;;;;;;5076798;28;20230;-74
2021/07/31 11:56:18;;;;;;;2.78;2.25;;;21.90;99.90;;;;;;5059988;28;20282;-73
2021/07/31 11:58:46;;;;;;;1.50;1.17;;;21.90;99.90;;;;;;5064132;28;20202;-73
2021/07/31 12:01:13;;;;;;;3.17;1.63;;;22.00;99.90;;;;;;5047213;28;20200;-73
2021/07/31 12:03:43;;;;;;;2.35;2.10;;;22.10;99.90;;;;;;5058158;28;20206;-74
2021/07/31 12:06:39;;;;;;;2.03;1.48;;;22.00;99.90;;;;;;5060924;28;20203;-74
2021/07/31 12:09:08;;;;;;;5.25;1.80;;;22.00;99.90;;;;;;5068110;28;20203;-74
2021/07/31 12:11:40;;;;;;;3.45;1.63;;;22.00;99.90;;;;;;5059036;28;20210;-73
2021/07/31 12:14:29;;;;;;;2.95;1.70;;;22.00;99.90;;;;;;5043059;28;20220;-74
2021/07/31 12:17:14;;;;;;;7.18;2.50;;;22.00;99.90;;;;;;5055640;28;20222;-73
2021/07/31 12:19:43;;;;;;;2.92;1.80;;;22.10;99.90;;;;;;5043095;28;20199;-74
2021/07/31 12:22:11;;;;;;;2.38;1.75;;;22.10;99.90;;;;;;5044095;28;20203;-73
2021/07/31 12:24:38;;;;;;;2.10;1.80;;;22.10;99.90;;;;;;5052546;28;20206;-73
2021/07/31 12:27:05;;;;;;;2.25;1.52;;;22.10;99.90;;;;;;5065309;28;20207;-74
2021/07/31 12:29:35;;;;;;;1.90;1.40;;;22.10;99.90;;;;;;5054682;28;20196;-74
2021/07/31 12:32:22;;;;;;;2.83;1.60;;;22.00;99.90;;;;;;5042839;28;20204;-73
2021/07/31 12:34:51;;;;;;;1.85;1.50;;;22.00;99.90;;;;;;5060840;28;20214;-73
2021/07/31 12:37:19;;;;;;;3.35;2.10;;;22.00;99.90;;;;;;5049290;28;20242;-73
2021/07/31 12:39:46;;;;;;;1.85;1.58;;;22.00;99.90;;;;;;5063269;28;20666;-73
2021/07/31 12:42:13;;;;;;;2.13;1.40;;;22.00;99.90;;;;;;5079880;28;20206;-74
2021/07/31 12:44:40;;;;;;;2.40;1.65;;;22.10;99.90;;;;;;5073033;28;20195;-73
2021/07/31 12:47:09;;;;;;;1.77;1.52;;;22.20;99.90;;;;;;5067406;28;20298;-73
2021/07/31 12:49:36;;;;;;;3.15;1.90;;;22.20;99.90;;;;;;5066286;28;20191;-73
2021/07/31 12:52:05;;;;;;;2.40;1.70;;;22.20;99.90;;;;;;5067776;28;20276;-73
2021/07/31 12:54:32;;;;;;;1.67;1.40;;;22.20;99.90;;;;;;5066920;28;20733;-73
2021/07/31 12:56:59;;;;;;;3.50;1.80;;;22.30;99.90;;;;;;5067034;28;20195;-75